createdAt,value
2023-04-26T00:02:22.020Z,9.98
2023-04-26T00:04:56.269Z,9.74
2023-04-26T00:07:28.694Z,9.53
2023-04-26T00:09:56.205Z,9.34
2023-04-26T00:12:23.426Z,9.38
2023-04-26T00:14:50.863Z,9.52
2023-04-26T00:17:18.314Z,9.37
2023-04-26T00:19:45.463Z,9.45
2023-04-26T00:22:13.452Z,9.38
2023-04-26T00:24:41.900Z,9.54
2023-04-26T00:27:10.547Z,9.51
2023-04-26T00:29:37.762Z,9.51
2023-04-26T00:32:05.551Z,9.44
2023-04-26T00:34:33.995Z,9.41
2023-04-26T00:37:01.152Z,9.54
2023-04-26T00:39:28.869Z,9.71
2023-04-26T00:41:56.282Z,9.94
2023-04-26T00:44:23.516Z,9.91
2023-04-26T00:46:52.561Z,9.53
2023-04-26T00:49:21.903Z,9.29
2023-04-26T00:51:49.230Z,9.51
2023-04-26T00:54:16.675Z,9.43
2023-04-26T00:56:44.252Z,9.40
2023-04-26T00:59:11.427Z,9.46
2023-04-26T01:01:40.637Z,9.76
2023-04-26T01:04:08.407Z,9.50
2023-04-26T01:06:35.892Z,9.56
2023-04-26T01:09:08.247Z,9.31
2023-04-26T01:11:36.105Z,9.23
2023-04-26T01:14:08.517Z,9.08
2023-04-26T01:16:35.746Z,8.98
2023-04-26T01:19:12.587Z,8.91
2023-04-26T01:21:40.264Z,8.84
2023-04-26T01:24:08.212Z,9.03
2023-04-26T01:26:44.084Z,9.11
2023-04-26T01:29:15.703Z,8.99
2023-04-26T01:31:43.538Z,8.84
2023-04-26T01:34:10.944Z,9.07
2023-04-26T01:36:38.367Z,8.88
2023-04-26T01:39:05.693Z,8.81
2023-04-26T01:41:33.762Z,8.88
2023-04-26T01:44:01.482Z,8.77
2023-04-26T01:46:28.828Z,8.85
2023-04-26T01:48:57.354Z,9.07
2023-04-26T01:51:24.862Z,9.16
2023-04-26T01:53:52.002Z,9.04
2023-04-26T01:56:19.707Z,8.74
2023-04-26T01:58:47.507Z,8.81
2023-04-26T02:01:14.838Z,8.91
2023-04-26T02:03:44.979Z,8.58
2023-04-26T02:06:12.171Z,8.81
2023-04-26T02:08:39.301Z,8.81
2023-04-26T02:11:07.064Z,8.68
2023-04-26T02:13:36.426Z,8.77
2023-04-26T02:16:03.753Z,8.68
2023-04-26T02:18:31.217Z,8.91
2023-04-26T02:20:58.361Z,8.74
2023-04-26T02:23:25.517Z,8.90
2023-04-26T02:25:52.927Z,8.76
2023-04-26T02:28:21.019Z,8.63
2023-04-26T02:30:48.152Z,8.60
2023-04-26T02:33:15.404Z,8.86
2023-04-26T02:35:43.010Z,8.79
2023-04-26T02:38:10.935Z,8.94
2023-04-26T02:40:38.086Z,8.96
2023-04-26T02:43:07.187Z,8.46
2023-04-26T02:45:34.325Z,8.43
2023-04-26T02:48:01.850Z,8.37
2023-04-26T02:50:29.583Z,8.41
2023-04-26T02:52:56.743Z,8.38
2023-04-26T02:55:23.896Z,8.34
2023-04-26T02:57:51.569Z,8.13
2023-04-26T03:00:18.788Z,8.20
2023-04-26T03:02:46.138Z,8.05
2023-04-26T03:05:13.895Z,8.08
2023-04-26T03:07:41.425Z,8.11
2023-04-26T03:10:09.906Z,8.07
2023-04-26T03:12:37.876Z,8.04
2023-04-26T03:15:05.396Z,8.03
2023-04-26T03:17:33.358Z,8.05
2023-04-26T03:20:02.739Z,7.98
2023-04-26T03:22:30.244Z,7.99
2023-04-26T03:24:57.528Z,8.05
2023-04-26T03:27:26.535Z,8.31
2023-04-26T03:29:54.024Z,8.29
2023-04-26T03:32:21.578Z,8.29
2023-04-26T03:34:49.953Z,8.35
2023-04-26T03:37:17.138Z,8.37
2023-04-26T03:39:44.976Z,8.37
2023-04-26T03:42:14.021Z,8.46
2023-04-26T03:44:41.606Z,8.40
2023-04-26T03:47:08.829Z,8.43
2023-04-26T03:49:37.020Z,8.49
2023-04-26T03:52:04.224Z,8.53
2023-04-26T03:54:32.012Z,8.77
2023-04-26T03:56:59.476Z,8.88
2023-04-26T03:59:26.743Z,8.62
2023-04-26T04:01:53.970Z,8.94
2023-04-26T04:04:21.754Z,9.00
2023-04-26T04:06:49.557Z,8.90
2023-04-26T04:09:18.070Z,8.77
2023-04-26T04:11:47.391Z,8.80
2023-04-26T04:14:14.828Z,9.04
2023-04-26T04:16:42.005Z,9.05
2023-04-26T04:19:09.521Z,7.71
2023-04-26T04:21:36.707Z,7.54
2023-04-26T04:24:04.050Z,7.20
2023-04-26T04:26:31.668Z,7.79
2023-04-26T04:29:08.543Z,8.55
2023-04-26T04:31:36.677Z,8.29
2023-04-26T04:34:03.953Z,8.17
2023-04-26T04:36:31.569Z,7.84
2023-04-26T04:38:59.089Z,8.02
2023-04-26T04:41:27.919Z,8.11
2023-04-26T04:43:55.409Z,7.88
2023-04-26T04:46:25.458Z,7.78
2023-04-26T04:48:53.562Z,7.68
2023-04-26T04:51:21.307Z,7.97
2023-04-26T04:53:49.109Z,7.77
2023-04-26T04:56:18.430Z,7.58
2023-04-26T04:58:46.337Z,7.51
2023-04-26T05:01:15.100Z,7.74
2023-04-26T05:03:42.624Z,7.62
2023-04-26T05:06:09.981Z,7.78
2023-04-26T05:08:37.428Z,7.44
2023-04-26T05:11:05.023Z,7.61
2023-04-26T05:13:32.234Z,7.48
2023-04-26T05:16:00.001Z,7.85
2023-04-26T05:18:27.262Z,8.12
2023-04-26T05:20:54.606Z,8.02
2023-04-26T05:23:22.217Z,7.60
2023-04-26T05:25:49.445Z,8.11
2023-04-26T05:28:17.550Z,7.94
2023-04-26T05:30:47.361Z,7.75
2023-04-26T05:33:15.046Z,7.78
2023-04-26T05:35:42.370Z,8.03
2023-04-26T05:38:09.857Z,8.13
2023-04-26T05:40:37.263Z,8.25
2023-04-26T05:43:05.459Z,8.43
2023-04-26T05:45:33.149Z,8.42
2023-04-26T05:48:01.141Z,8.75
2023-04-26T05:50:30.162Z,8.83
2023-04-26T05:52:57.708Z,8.91
2023-04-26T05:55:24.901Z,8.95
2023-04-26T05:57:52.485Z,9.41
2023-04-26T06:00:22.689Z,9.18
2023-04-26T06:02:50.282Z,9.11
2023-04-26T06:05:17.721Z,9.24
2023-04-26T06:07:46.101Z,9.18
2023-04-26T06:10:13.580Z,9.14
2023-04-26T06:12:41.377Z,8.98
2023-04-26T06:15:08.841Z,9.15
2023-04-26T06:17:38.042Z,9.11
2023-04-26T06:20:05.845Z,9.07
2023-04-26T06:22:33.032Z,9.18
2023-04-26T06:25:00.572Z,9.22
2023-04-26T06:27:27.772Z,9.74
2023-04-26T06:29:55.176Z,9.58
2023-04-26T06:32:22.850Z,9.31
2023-04-26T06:34:50.680Z,9.50
2023-04-26T06:37:19.095Z,9.63
2023-04-26T06:39:46.808Z,9.67
2023-04-26T06:42:13.988Z,9.70
2023-04-26T06:44:41.888Z,9.67
2023-04-26T06:47:11.314Z,9.70
2023-04-26T06:49:38.836Z,9.52
2023-04-26T06:52:08.264Z,9.61
2023-04-26T06:54:45.898Z,9.42
2023-04-26T06:57:17.260Z,9.74
2023-04-26T06:59:45.241Z,10.20
2023-04-26T07:02:13.887Z,10.43
2023-04-26T07:04:42.515Z,10.53
2023-04-26T07:07:13.038Z,10.36
2023-04-26T07:09:41.118Z,10.69
2023-04-26T07:12:08.518Z,10.84
2023-04-26T07:14:39.437Z,11.54
2023-04-26T07:17:10.943Z,12.12
2023-04-26T07:19:38.696Z,11.86
2023-04-26T07:22:06.045Z,11.92
2023-04-26T07:24:33.294Z,12.13
2023-04-26T07:27:01.251Z,12.38
2023-04-26T07:29:28.653Z,12.50
2023-04-26T07:31:57.089Z,12.25
2023-04-26T07:34:24.554Z,12.41
2023-04-26T07:36:51.701Z,12.39
2023-04-26T07:39:19.033Z,12.62
2023-04-26T07:41:46.513Z,13.36
2023-04-26T07:44:13.894Z,13.43
2023-04-26T07:46:41.107Z,13.59
2023-04-26T07:49:08.715Z,13.74
2023-04-26T07:51:35.843Z,13.84
2023-04-26T07:54:03.050Z,14.05
2023-04-26T07:56:30.552Z,14.11
2023-04-26T07:58:58.086Z,13.31
2023-04-26T08:01:25.669Z,12.71
2023-04-26T08:03:53.653Z,11.92
2023-04-26T08:06:21.916Z,12.12
2023-04-26T08:08:50.843Z,12.44
2023-04-26T08:11:18.675Z,12.92
2023-04-26T08:13:46.359Z,13.62
2023-04-26T08:16:14.215Z,13.06
2023-04-26T08:18:43.929Z,13.17
2023-04-26T08:21:13.517Z,13.36
2023-04-26T08:23:40.776Z,13.76
2023-04-26T08:26:08.333Z,13.73
2023-04-26T08:28:35.869Z,13.51
2023-04-26T08:31:03.422Z,12.58
2023-04-26T08:33:30.857Z,11.67
2023-04-26T08:35:59.138Z,12.02
2023-04-26T08:38:26.338Z,12.11
2023-04-26T08:40:53.788Z,12.46
2023-04-26T08:43:20.901Z,12.34
2023-04-26T08:45:48.180Z,12.83
2023-04-26T08:48:18.068Z,12.83
2023-04-26T08:50:46.656Z,13.05
2023-04-26T08:53:14.418Z,12.93
2023-04-26T08:58:10.971Z,12.59
2023-04-26T09:00:38.262Z,12.34
2023-04-26T09:03:05.788Z,12.52
2023-04-26T09:05:33.542Z,11.91
2023-04-26T09:08:02.217Z,12.10
2023-04-26T09:10:29.708Z,12.28
2023-04-26T09:12:56.894Z,12.16
2023-04-26T09:15:24.699Z,12.89
2023-04-26T09:17:52.815Z,13.19
2023-04-26T09:20:21.294Z,13.02
2023-04-26T09:22:49.319Z,13.07
2023-04-26T09:25:17.820Z,13.12
2023-04-26T09:27:45.061Z,13.21
2023-04-26T09:30:13.871Z,13.50
2023-04-26T09:32:44.637Z,13.23
2023-04-26T09:35:27.460Z,12.77
2023-04-26T09:37:59.568Z,12.58
2023-04-26T09:40:28.523Z,12.62
2023-04-26T09:43:04.586Z,12.78
2023-04-26T09:45:32.638Z,12.57
2023-04-26T09:48:16.988Z,13.08
2023-04-26T09:50:48.192Z,13.56
2023-04-26T09:53:25.864Z,12.96
2023-04-26T09:55:53.652Z,13.29
2023-04-26T09:58:21.127Z,13.07
2023-04-26T10:00:49.654Z,13.66
2023-04-26T10:03:18.472Z,13.12
2023-04-26T10:05:46.240Z,12.82
2023-04-26T10:08:13.463Z,13.21
2023-04-26T10:10:41.321Z,13.70
2023-04-26T10:13:08.520Z,14.11
2023-04-26T10:15:35.916Z,13.76
2023-04-26T10:18:04.474Z,13.23
2023-04-26T10:20:31.683Z,13.15
2023-04-26T10:23:01.526Z,13.15
2023-04-26T10:25:41.972Z,13.16
2023-04-26T10:28:09.649Z,13.37
2023-04-26T10:30:56.158Z,13.75
2023-04-26T10:33:23.984Z,14.01
2023-04-26T10:36:04.029Z,13.86
2023-04-26T10:38:31.521Z,13.59
2023-04-26T10:41:18.875Z,13.11
2023-04-26T10:43:46.083Z,12.86
2023-04-26T10:46:32.441Z,13.13
2023-04-26T10:48:59.600Z,13.19
2023-04-26T10:51:27.254Z,13.17
2023-04-26T10:53:54.727Z,13.22
2023-04-26T10:56:28.470Z,13.09
2023-04-26T10:59:23.191Z,12.83
2023-04-26T11:01:56.353Z,13.00
2023-04-26T11:04:24.113Z,13.40
2023-04-26T11:06:52.097Z,13.62
2023-04-26T11:09:36.163Z,13.69
2023-04-26T11:12:04.473Z,13.57
2023-04-26T11:14:33.516Z,13.12
2023-04-26T11:17:03.564Z,13.12
2023-04-26T11:19:31.436Z,12.84
2023-04-26T11:22:01.991Z,13.24
2023-04-26T11:24:33.521Z,13.31
2023-04-26T11:27:01.208Z,13.39
2023-04-26T11:29:28.657Z,13.15
2023-04-26T11:31:56.590Z,13.32
2023-04-26T11:34:37.056Z,13.24
2023-04-26T11:37:04.910Z,13.40
2023-04-26T11:39:32.751Z,13.57
2023-04-26T11:42:07.392Z,13.83
2023-04-26T11:44:35.505Z,13.52
2023-04-26T11:47:04.150Z,13.14
2023-04-26T11:49:31.790Z,13.45
2023-04-26T11:51:59.240Z,13.70
2023-04-26T11:54:33.365Z,13.11
2023-04-26T11:57:01.121Z,13.28
2023-04-26T11:59:29.285Z,13.16
2023-04-26T12:02:00.514Z,13.21
2023-04-26T12:04:30.307Z,12.42
2023-04-26T12:06:57.863Z,12.43
2023-04-26T12:09:29.687Z,12.70
2023-04-26T12:11:59.003Z,12.56
2023-04-26T12:14:36.350Z,12.61
2023-04-26T12:17:04.465Z,12.98
2023-04-26T12:19:38.617Z,12.93
2023-04-26T12:22:06.960Z,13.43
2023-04-26T12:24:36.665Z,13.86
2023-04-26T12:27:06.122Z,13.63
2023-04-26T12:29:33.760Z,13.68
2023-04-26T12:32:01.370Z,13.15
2023-04-26T12:34:28.635Z,13.05
2023-04-26T12:36:56.285Z,12.66
2023-04-26T12:39:23.461Z,12.34
2023-04-26T12:41:50.629Z,12.22
2023-04-26T12:44:20.361Z,12.36
2023-04-26T12:46:49.224Z,12.45
2023-04-26T12:49:16.396Z,12.70
2023-04-26T12:51:43.820Z,12.82
2023-04-26T12:54:10.991Z,12.67
2023-04-26T12:56:43.620Z,12.44
2023-04-26T12:59:11.134Z,12.49
2023-04-26T13:01:39.453Z,12.32
2023-04-26T13:04:07.154Z,12.65
2023-04-26T13:06:34.988Z,12.65
2023-04-26T13:09:02.603Z,13.32
2023-04-26T13:11:29.815Z,13.38
2023-04-26T13:13:57.228Z,13.44
2023-04-26T13:16:24.394Z,13.23
2023-04-26T13:18:51.708Z,13.04
2023-04-26T13:21:19.115Z,13.19
2023-04-26T13:23:47.327Z,13.00
2023-04-26T13:26:17.560Z,13.45
2023-04-26T13:28:45.116Z,13.66
2023-04-26T13:31:12.291Z,13.57
2023-04-26T13:33:39.484Z,12.64
2023-04-26T13:36:07.418Z,12.58
2023-04-26T13:38:34.618Z,12.38
2023-04-26T13:41:02.773Z,12.67
2023-04-26T13:43:30.205Z,12.42
2023-04-26T13:45:57.550Z,12.41
2023-04-26T13:48:24.843Z,12.33
2023-04-26T13:50:52.286Z,12.71
2023-04-26T13:53:22.307Z,13.20
2023-04-26T13:55:49.455Z,13.30
2023-04-26T13:58:17.181Z,13.59
2023-04-26T14:00:44.619Z,13.29
2023-04-26T14:03:12.832Z,13.16
2023-04-26T14:05:40.183Z,13.12
2023-04-26T14:08:08.217Z,13.35
2023-04-26T14:10:35.615Z,13.10
2023-04-26T14:13:02.764Z,12.81
2023-04-26T14:15:29.953Z,12.59
2023-04-26T14:17:57.475Z,12.83
2023-04-26T14:20:24.734Z,12.78
2023-04-26T14:22:51.937Z,12.50
2023-04-26T14:25:19.416Z,12.47
2023-04-26T14:27:47.033Z,12.35
2023-04-26T14:30:14.505Z,12.18
2023-04-26T14:32:42.044Z,12.25
2023-04-26T14:35:09.347Z,11.95
2023-04-26T14:37:36.731Z,12.08
2023-04-26T14:40:04.812Z,12.19
2023-04-26T14:42:32.304Z,12.38
2023-04-26T14:44:59.709Z,12.14
2023-04-26T14:47:27.498Z,12.02
2023-04-26T14:49:54.876Z,11.86
2023-04-26T14:52:26.826Z,11.73
2023-04-26T14:54:54.261Z,12.01
2023-04-26T14:57:22.357Z,12.34
2023-04-26T14:59:49.736Z,12.74
2023-04-26T15:02:17.402Z,12.87
2023-04-26T15:04:45.064Z,13.28
2023-04-26T15:07:21.081Z,13.73
2023-04-26T15:09:58.768Z,13.20
2023-04-26T15:12:25.999Z,13.16
2023-04-26T15:14:53.167Z,13.12
2023-04-26T15:17:20.631Z,13.25
2023-04-26T15:19:48.033Z,13.03
2023-04-26T15:22:15.170Z,13.00
2023-04-26T15:24:42.631Z,13.10
2023-04-26T15:27:10.467Z,13.02
2023-04-26T15:29:37.732Z,12.97
2023-04-26T15:32:05.124Z,12.67
2023-04-26T15:34:39.221Z,12.32
2023-04-26T15:37:06.922Z,12.20
2023-04-26T15:39:34.075Z,12.22
2023-04-26T15:42:01.424Z,12.22
2023-04-26T15:44:28.861Z,12.25
2023-04-26T15:46:56.035Z,12.09
2023-04-26T15:49:23.748Z,12.15
2023-04-26T15:51:51.225Z,12.30
2023-04-26T15:54:18.476Z,12.43
2023-04-26T15:56:47.090Z,12.16
2023-04-26T15:59:14.529Z,11.91
2023-04-26T16:01:41.958Z,11.95
2023-04-26T16:04:10.181Z,12.08
2023-04-26T16:06:37.794Z,12.11
2023-04-26T16:09:17.201Z,12.51
2023-04-26T16:11:51.315Z,12.35
2023-04-26T16:14:19.742Z,12.26
2023-04-26T16:16:46.904Z,12.51
2023-04-26T16:19:14.373Z,12.33
2023-04-26T16:21:41.745Z,12.61
2023-04-26T16:24:09.413Z,12.29
2023-04-26T16:26:36.992Z,12.42
2023-04-26T16:29:04.436Z,12.34
2023-04-26T16:31:32.462Z,12.38
2023-04-26T16:34:00.036Z,12.16
2023-04-26T16:36:28.545Z,12.09
2023-04-26T16:38:56.712Z,12.08
2023-04-26T16:41:24.622Z,12.34
2023-04-26T16:43:53.023Z,12.37
2023-04-26T16:46:20.339Z,12.20
2023-04-26T16:48:47.870Z,12.27
2023-04-26T16:51:15.020Z,12.38
2023-04-26T16:53:43.470Z,12.42
2023-04-26T16:56:11.086Z,12.44
2023-04-26T16:58:39.070Z,12.24
2023-04-26T17:01:06.402Z,12.12
2023-04-26T17:03:34.406Z,12.23
2023-04-26T17:06:01.723Z,12.55
2023-04-26T17:08:29.283Z,12.16
2023-04-26T17:10:57.220Z,12.25
2023-04-26T17:13:29.158Z,11.91
2023-04-26T17:15:57.486Z,11.92
2023-04-26T17:18:25.318Z,11.99
2023-04-26T17:20:54.177Z,11.70
2023-04-26T17:23:21.732Z,12.12
2023-04-26T17:25:49.536Z,11.93
2023-04-26T17:28:16.987Z,11.57
2023-04-26T17:30:44.906Z,11.97
2023-04-26T17:33:12.345Z,12.02
2023-04-26T17:35:39.880Z,12.31
2023-04-26T17:38:07.856Z,12.20
2023-04-26T17:40:35.725Z,12.00
2023-04-26T17:43:05.035Z,12.16
2023-04-26T17:45:32.692Z,12.14
2023-04-26T17:48:00.052Z,11.59
2023-04-26T17:50:27.249Z,11.99
2023-04-26T17:52:54.691Z,12.10
2023-04-26T17:55:23.238Z,11.78
2023-04-26T17:57:50.684Z,11.78
2023-04-26T18:00:18.664Z,11.78
2023-04-26T18:02:47.066Z,11.78
2023-04-26T18:05:16.844Z,11.45
2023-04-26T18:07:44.473Z,11.50
2023-04-26T18:10:12.872Z,11.35
2023-04-26T18:12:41.519Z,11.27
2023-04-26T18:15:09.480Z,11.52
2023-04-26T18:17:40.673Z,11.40
2023-04-26T18:20:08.606Z,11.27
2023-04-26T18:22:36.970Z,10.94
2023-04-26T18:25:04.926Z,10.92
2023-04-26T18:27:33.623Z,11.07
2023-04-26T18:30:01.941Z,10.80
2023-04-26T18:32:30.232Z,11.15
2023-04-26T18:34:57.920Z,10.97
2023-04-26T18:37:25.848Z,11.06
2023-04-26T18:39:53.545Z,10.96
2023-04-26T18:42:21.334Z,11.14
2023-04-26T18:44:50.323Z,11.18
2023-04-26T18:47:17.836Z,11.04
2023-04-26T18:49:45.272Z,11.08
2023-04-26T18:52:12.750Z,11.16
2023-04-26T18:54:40.500Z,10.98
2023-04-26T18:57:08.206Z,11.15
2023-04-26T18:59:35.786Z,11.14
2023-04-26T19:02:04.773Z,11.35
2023-04-26T19:04:33.253Z,11.31
2023-04-26T19:07:01.914Z,11.50
2023-04-26T19:09:31.960Z,11.10
2023-04-26T19:12:01.377Z,10.77
2023-04-26T19:14:29.144Z,10.91
2023-04-26T19:17:02.562Z,11.02
2023-04-26T19:19:29.754Z,10.97
2023-04-26T19:21:57.447Z,10.92
2023-04-26T19:24:25.528Z,10.96
2023-04-26T19:26:53.238Z,10.78
2023-04-26T19:29:21.847Z,10.95
2023-04-26T19:31:50.415Z,10.66
2023-04-26T19:34:21.443Z,10.39
2023-04-26T19:36:49.367Z,10.64
2023-04-26T19:39:18.310Z,11.39
2023-04-26T19:41:46.843Z,9.62
2023-04-26T19:44:20.306Z,10.66
2023-04-26T19:46:48.186Z,10.58
2023-04-26T19:49:16.555Z,11.12
2023-04-26T19:51:44.705Z,11.13
2023-04-26T19:54:13.675Z,10.80
2023-04-26T19:56:41.859Z,10.22
2023-04-26T19:59:09.969Z,10.52
2023-04-26T20:01:38.375Z,11.12
2023-04-26T20:04:09.543Z,10.32
2023-04-26T20:06:37.014Z,11.09
2023-04-26T20:09:05.693Z,10.73
2023-04-26T20:11:34.443Z,10.63
2023-04-26T20:14:02.509Z,10.54
2023-04-26T20:16:30.584Z,10.49
2023-04-26T20:19:01.625Z,10.06
2023-04-26T20:21:29.362Z,9.86
2023-04-26T20:23:58.071Z,10.10
2023-04-26T20:26:26.011Z,9.69
2023-04-26T20:28:57.017Z,9.68
2023-04-26T20:31:25.308Z,9.98
2023-04-26T20:33:54.507Z,10.34
2023-04-26T20:36:22.039Z,9.68
2023-04-26T20:38:49.853Z,9.14
2023-04-26T20:41:17.455Z,9.78
2023-04-26T20:43:44.636Z,10.35
2023-04-26T20:46:12.045Z,9.43
2023-04-26T20:48:40.036Z,10.08
2023-04-26T20:51:07.393Z,9.87
2023-04-26T20:53:35.353Z,9.46
2023-04-26T20:56:03.568Z,9.10
2023-04-26T20:58:30.809Z,7.75
2023-04-26T21:00:59.415Z,7.05
2023-04-26T21:03:27.284Z,6.79
2023-04-26T21:05:54.585Z,6.93
2023-04-26T21:08:21.809Z,8.03
2023-04-26T21:10:49.266Z,8.22
2023-04-26T21:13:16.650Z,7.17
2023-04-26T21:15:43.772Z,6.54
2023-04-26T21:18:11.167Z,6.41
2023-04-26T21:20:38.382Z,6.99
2023-04-26T21:23:05.800Z,7.59
2023-04-26T21:25:33.282Z,7.55
2023-04-26T21:28:00.432Z,7.71
2023-04-26T21:30:27.632Z,7.96
2023-04-26T21:32:55.183Z,7.91
2023-04-26T21:35:22.894Z,8.15
2023-04-26T21:37:50.133Z,7.95
2023-04-26T21:40:17.589Z,8.11
2023-04-26T21:42:54.274Z,8.19
2023-04-26T21:45:31.311Z,8.06
2023-04-26T21:47:59.965Z,7.84
2023-04-26T21:50:28.962Z,7.39
2023-04-26T21:52:56.483Z,7.21
2023-04-26T21:55:23.623Z,7.11
2023-04-26T21:57:50.737Z,7.57
2023-04-26T22:00:18.205Z,7.37
2023-04-26T22:02:47.270Z,7.31
2023-04-26T22:05:14.486Z,6.58
2023-04-26T22:07:41.685Z,7.37
2023-04-26T22:10:09.366Z,7.49
2023-04-26T22:12:36.553Z,8.46
2023-04-26T22:15:03.966Z,8.13
2023-04-26T22:17:31.738Z,8.44
2023-04-26T22:19:58.938Z,8.38
2023-04-26T22:22:26.073Z,8.07
2023-04-26T22:24:53.538Z,7.48
2023-04-26T22:27:20.751Z,7.94
2023-04-26T22:29:47.877Z,7.82
2023-04-26T22:32:15.453Z,7.92
2023-04-26T22:34:43.953Z,6.87
2023-04-26T22:37:20.751Z,7.61
2023-04-26T22:39:49.195Z,6.30
2023-04-26T22:42:16.544Z,5.39
2023-04-26T22:44:43.717Z,5.26
2023-04-26T22:47:11.157Z,5.01
2023-04-26T22:49:38.292Z,5.25
2023-04-26T22:52:11.588Z,5.32
2023-04-26T22:54:41.922Z,5.35
2023-04-26T22:57:09.068Z,5.57
2023-04-26T22:59:36.249Z,5.84
2023-04-26T23:02:03.979Z,5.93
2023-04-26T23:04:31.190Z,5.39
2023-04-26T23:06:58.386Z,5.13
2023-04-26T23:09:26.028Z,5.58
2023-04-26T23:11:53.226Z,4.72
2023-04-26T23:14:20.401Z,4.72
2023-04-26T23:16:47.868Z,4.64
2023-04-26T23:19:15.269Z,4.48
2023-04-26T23:21:42.563Z,4.84
2023-04-26T23:24:10.014Z,6.39
2023-04-26T23:26:37.165Z,7.01
2023-04-26T23:29:04.360Z,7.18
2023-04-26T23:31:31.846Z,7.06
2023-04-26T23:33:59.077Z,5.23
2023-04-26T23:36:27.657Z,4.70
2023-04-26T23:38:55.136Z,4.46
2023-04-26T23:41:22.306Z,4.50
2023-04-26T23:43:49.478Z,4.55
2023-04-26T23:46:16.975Z,4.55
2023-04-26T23:48:44.293Z,4.75
2023-04-26T23:51:11.533Z,4.42
2023-04-26T23:53:39.747Z,4.53
2023-04-26T23:56:07.754Z,5.06
2023-04-26T23:58:34.912Z,5.88
